createdAt,value
2023-04-09T00:00:32.114Z,100875.81
2023-04-09T00:03:22.595Z,100878.50
2023-04-09T00:06:12.694Z,100878.97
2023-04-09T00:09:01.450Z,100863.22
2023-04-09T00:11:49.959Z,100865.25
2023-04-09T00:14:38.527Z,100861.44
2023-04-09T00:17:27.066Z,100863.47
2023-04-09T00:20:17.227Z,100863.41
2023-04-09T00:23:06.069Z,100863.47
2023-04-09T00:25:54.684Z,100851.91
2023-04-09T00:28:43.186Z,100858.03
2023-04-09T00:31:31.756Z,100852.88
2023-04-09T00:34:20.295Z,100841.38
2023-04-09T00:37:10.382Z,100857.34
2023-04-09T00:39:58.879Z,100850.06
2023-04-09T00:42:48.080Z,100850.88
2023-04-09T00:45:36.907Z,100851.94
2023-04-09T00:48:25.645Z,100819.75
2023-04-09T00:51:14.184Z,100858.19
2023-04-09T00:54:04.195Z,100859.97
2023-04-09T00:56:53.248Z,100858.69
2023-04-09T00:59:41.830Z,100861.34
2023-04-09T01:02:30.960Z,100859.38
2023-04-09T01:05:20.433Z,100854.03
2023-04-09T01:08:14.150Z,100846.53
2023-04-09T01:11:10.684Z,100862.69
2023-04-09T01:14:08.039Z,100857.66
2023-04-09T01:17:00.733Z,100865.69
2023-04-09T01:19:52.410Z,100862.31
2023-04-09T01:23:05.563Z,100859.84
2023-04-09T01:26:03.289Z,100857.00
2023-04-09T01:28:55.139Z,100855.63
2023-04-09T01:31:44.165Z,100853.38
2023-04-09T01:34:32.919Z,100851.06
2023-04-09T01:37:21.792Z,100858.06
2023-04-09T01:40:11.095Z,100859.97
2023-04-09T01:42:59.796Z,100855.31
2023-04-09T01:45:49.836Z,100848.97
2023-04-09T01:48:38.772Z,100858.66
2023-04-09T01:51:27.926Z,100859.72
2023-04-09T01:54:17.312Z,100857.53
2023-04-09T01:57:05.860Z,100851.16
2023-04-09T01:59:55.596Z,100856.09
2023-04-09T02:02:48.152Z,100813.13
2023-04-09T02:05:39.751Z,100851.78
2023-04-09T02:08:29.847Z,100864.22
2023-04-09T02:11:18.578Z,100856.88
2023-04-09T02:14:09.152Z,100864.22
2023-04-09T02:16:57.970Z,100858.53
2023-04-09T02:19:48.678Z,100857.13
2023-04-09T02:22:37.245Z,100847.91
2023-04-09T02:25:26.302Z,100751.84
2023-04-09T02:28:14.850Z,100855.78
2023-04-09T02:31:03.845Z,100840.25
2023-04-09T02:33:54.073Z,100841.50
2023-04-09T02:36:43.911Z,100848.59
2023-04-09T02:39:32.400Z,100842.28
2023-04-09T02:42:21.788Z,100850.00
2023-04-09T02:45:11.193Z,100849.78
2023-04-09T02:47:59.773Z,100853.16
2023-04-09T02:50:48.351Z,100851.47
2023-04-09T02:53:40.706Z,100851.13
2023-04-09T02:56:29.250Z,100856.81
2023-04-09T02:59:17.727Z,100866.28
2023-04-09T03:02:06.444Z,100853.28
2023-04-09T03:04:55.108Z,100846.91
2023-04-09T03:07:43.661Z,100845.25
2023-04-09T03:10:33.573Z,100846.56
2023-04-09T03:13:22.087Z,100843.00
2023-04-09T03:16:11.119Z,100835.69
2023-04-09T03:18:59.951Z,100839.72
2023-04-09T03:21:49.260Z,100838.25
2023-04-09T03:24:37.716Z,100833.59
2023-04-09T03:27:27.552Z,100828.94
2023-04-09T03:30:16.212Z,100830.59
2023-04-09T03:33:04.829Z,100822.28
2023-04-09T03:35:53.461Z,100826.25
2023-04-09T03:38:41.970Z,100836.28
2023-04-09T03:41:30.448Z,100839.19
2023-04-09T03:44:20.596Z,100831.88
2023-04-09T03:47:09.086Z,100833.91
2023-04-09T03:49:57.612Z,100772.69
2023-04-09T03:52:46.059Z,100839.75
2023-04-09T03:55:34.714Z,100832.06
2023-04-09T03:58:23.154Z,100839.91
2023-04-09T04:01:13.015Z,100847.22
2023-04-09T04:04:01.712Z,100837.94
2023-04-09T04:06:50.372Z,100846.94
2023-04-09T04:09:38.866Z,100845.44
2023-04-09T04:12:27.362Z,100833.63
2023-04-09T04:15:16.274Z,100834.44
2023-04-09T04:18:06.134Z,100842.31
2023-04-09T04:20:54.642Z,100840.94
2023-04-09T04:23:43.337Z,100847.13
2023-04-09T04:26:31.853Z,100851.00
2023-04-09T04:29:20.621Z,100840.97
2023-04-09T04:32:09.138Z,100855.66
2023-04-09T04:34:58.926Z,100846.00
2023-04-09T04:37:50.697Z,100815.16
2023-04-09T04:40:39.153Z,100860.69
2023-04-09T04:43:27.725Z,100850.19
2023-04-09T04:46:16.378Z,100859.50
2023-04-09T04:49:04.966Z,100861.38
2023-04-09T04:51:54.793Z,100859.84
2023-04-09T04:54:43.307Z,100858.00
2023-04-09T04:57:31.850Z,100857.88
2023-04-09T05:00:20.711Z,100856.66
2023-04-09T05:03:09.316Z,100832.34
2023-04-09T05:05:57.847Z,100857.19
2023-04-09T05:08:47.724Z,100861.50
2023-04-09T05:11:36.174Z,100827.81
2023-04-09T05:14:25.150Z,100860.50
2023-04-09T05:17:13.957Z,100865.50
2023-04-09T05:20:02.549Z,100874.53
2023-04-09T05:22:51.047Z,100863.50
2023-04-09T05:25:41.106Z,100865.66
2023-04-09T05:28:29.604Z,100878.47
2023-04-09T05:31:18.360Z,100872.94
2023-04-09T05:34:07.183Z,100881.25
2023-04-09T05:36:55.772Z,100882.75
2023-04-09T05:39:44.279Z,100881.91
2023-04-09T05:42:34.205Z,100872.19
2023-04-09T05:45:22.738Z,100885.78
2023-04-09T05:48:11.359Z,100881.63
2023-04-09T05:51:01.009Z,100874.09
2023-04-09T05:53:50.036Z,100877.22
2023-04-09T05:56:38.631Z,100876.44
2023-04-09T05:59:28.578Z,100880.13
2023-04-09T06:02:17.177Z,100886.59
2023-04-09T06:05:06.407Z,100883.66
2023-04-09T06:07:54.977Z,100871.81
2023-04-09T06:10:46.335Z,100885.63
2023-04-09T06:13:35.091Z,100875.16
2023-04-09T06:16:24.886Z,100887.16
2023-04-09T06:19:13.490Z,100883.34
2023-04-09T06:22:02.014Z,100888.72
2023-04-09T06:24:50.572Z,100891.19
2023-04-09T06:27:39.083Z,100886.50
2023-04-09T06:30:27.590Z,100890.25
2023-04-09T06:33:23.715Z,100888.22
2023-04-09T06:36:12.366Z,100889.34
2023-04-09T06:39:00.908Z,100886.34
2023-04-09T06:41:49.463Z,100899.84
2023-04-09T06:44:38.014Z,100890.03
2023-04-09T06:47:27.108Z,100902.78
2023-04-09T06:50:17.874Z,100904.38
2023-04-09T06:53:08.056Z,100843.09
2023-04-09T06:55:57.268Z,100902.25
2023-04-09T06:58:45.892Z,100894.81
2023-04-09T07:01:35.516Z,100900.16
2023-04-09T07:04:24.228Z,100897.09
2023-04-09T07:07:14.265Z,100894.75
2023-04-09T07:10:02.890Z,100900.84
2023-04-09T07:12:51.381Z,100897.25
2023-04-09T07:15:40.661Z,100892.72
2023-04-09T07:18:31.695Z,100896.75
2023-04-09T07:21:20.439Z,100905.53
2023-04-09T07:24:10.338Z,100918.22
2023-04-09T07:26:58.825Z,100923.22
2023-04-09T07:29:47.632Z,100911.16
2023-04-09T07:32:36.395Z,100915.53
2023-04-09T07:35:25.027Z,100923.72
2023-04-09T07:38:13.658Z,100911.25
2023-04-09T07:41:03.543Z,100931.28
2023-04-09T07:43:52.057Z,100926.69
2023-04-09T07:46:41.384Z,100929.22
2023-04-09T07:49:29.989Z,100934.75
2023-04-09T07:52:19.566Z,100939.13
2023-04-09T07:55:08.447Z,100919.34
2023-04-09T07:57:58.300Z,100926.00
2023-04-09T08:00:46.971Z,100928.97
2023-04-09T08:03:36.305Z,100924.28
2023-04-09T08:06:26.348Z,100935.16
2023-04-09T08:09:15.059Z,100918.28
2023-04-09T08:12:03.854Z,100926.09
2023-04-09T08:14:53.740Z,100919.31
2023-04-09T08:17:42.401Z,100921.88
2023-04-09T08:20:32.954Z,100925.00
2023-04-09T08:23:21.451Z,100933.31
2023-04-09T08:26:10.014Z,100931.38
2023-04-09T08:28:59.004Z,100930.50
2023-04-09T08:31:48.914Z,100909.94
2023-04-09T08:34:37.572Z,100934.69
2023-04-09T08:37:26.715Z,100936.72
2023-04-09T08:40:15.554Z,100938.16
2023-04-09T08:43:06.680Z,100936.47
2023-04-09T08:45:58.052Z,100932.00
2023-04-09T08:48:49.817Z,100938.28
2023-04-09T08:51:39.346Z,100937.28
2023-04-09T08:54:27.926Z,100931.25
2023-04-09T08:57:17.845Z,100940.38
2023-04-09T09:00:07.939Z,100940.75
2023-04-09T09:03:03.424Z,100941.97
2023-04-09T09:05:53.743Z,100950.88
2023-04-09T09:08:42.364Z,100942.84
2023-04-09T09:11:31.323Z,100948.81
2023-04-09T09:14:20.699Z,100963.00
2023-04-09T09:17:09.295Z,100961.38
2023-04-09T09:19:58.109Z,100939.75
2023-04-09T09:22:55.909Z,100947.59
2023-04-09T09:25:44.639Z,100918.22
2023-04-09T09:28:36.418Z,100943.31
2023-04-09T09:31:24.947Z,100943.00
2023-04-09T09:34:13.588Z,100837.47
2023-04-09T09:37:02.363Z,100944.06
2023-04-09T09:39:52.318Z,100935.81
2023-04-09T09:42:55.840Z,100936.56
2023-04-09T09:45:45.614Z,100931.59
2023-04-09T09:48:35.087Z,100934.53
2023-04-09T09:51:27.718Z,100926.00
2023-04-09T09:54:19.082Z,100931.97
2023-04-09T09:57:13.576Z,100938.97
2023-04-09T10:00:03.942Z,100922.84
2023-04-09T10:02:55.689Z,100922.06
2023-04-09T10:05:44.682Z,100930.19
2023-04-09T10:08:34.804Z,100937.50
2023-04-09T10:11:24.376Z,100929.34
2023-04-09T10:14:14.744Z,100949.13
2023-04-09T10:17:03.939Z,100937.25
2023-04-09T10:20:00.265Z,100931.34
2023-04-09T10:22:50.227Z,100933.81
2023-04-09T10:25:38.986Z,100923.03
2023-04-09T10:28:27.513Z,100938.59
2023-04-09T10:31:17.464Z,100929.69
2023-04-09T10:34:05.914Z,100932.69
2023-04-09T10:36:57.829Z,100940.97
2023-04-09T10:39:47.532Z,100916.88
2023-04-09T10:42:38.878Z,100918.56
2023-04-09T10:45:40.648Z,100919.91
2023-04-09T10:48:34.224Z,100926.56
2023-04-09T10:51:22.822Z,100899.69
2023-04-09T10:54:39.034Z,100911.09
2023-04-09T10:57:27.992Z,100910.88
2023-04-09T11:00:18.730Z,100914.63
2023-04-09T11:03:23.174Z,100918.16
2023-04-09T11:06:17.644Z,100903.19
2023-04-09T11:09:06.174Z,100907.78
2023-04-09T11:11:55.084Z,100867.28
2023-04-09T11:14:43.572Z,100912.13
2023-04-09T11:17:32.551Z,100905.91
2023-04-09T11:20:22.524Z,100898.44
2023-04-09T11:23:14.044Z,100914.19
2023-04-09T11:26:02.959Z,100893.84
2023-04-09T11:28:51.747Z,100901.34
2023-04-09T11:31:40.521Z,100890.13
2023-04-09T11:34:29.158Z,100894.06
2023-04-09T11:37:18.038Z,100893.06
2023-04-09T11:40:09.333Z,100897.41
2023-04-09T11:42:57.867Z,100900.97
2023-04-09T11:45:48.272Z,100896.72
2023-04-09T11:48:37.340Z,100892.22
2023-04-09T11:51:27.183Z,100903.81
2023-04-09T11:54:15.938Z,100888.31
2023-04-09T11:57:06.820Z,100894.91
2023-04-09T11:59:55.385Z,100900.13
2023-04-09T12:02:46.389Z,100885.38
2023-04-09T12:05:37.115Z,100896.16
2023-04-09T12:08:26.426Z,100904.28
2023-04-09T12:11:17.113Z,100899.91
2023-04-09T12:14:07.037Z,100870.66
2023-04-09T12:16:55.698Z,100890.16
2023-04-09T12:19:44.279Z,100891.59
2023-04-09T12:22:33.029Z,100899.50
2023-04-09T12:25:21.600Z,100894.72
2023-04-09T12:28:12.277Z,100893.88
2023-04-09T12:31:03.570Z,100869.81
2023-04-09T12:33:52.325Z,100889.31
2023-04-09T12:36:41.620Z,100886.44
2023-04-09T12:39:31.349Z,100868.81
2023-04-09T12:42:20.481Z,100886.81
2023-04-09T12:45:10.420Z,100859.28
2023-04-09T12:48:00.370Z,100870.13
2023-04-09T12:50:48.993Z,100878.72
2023-04-09T12:53:37.575Z,100864.06
2023-04-09T12:56:27.368Z,100858.34
2023-04-09T12:59:16.793Z,100865.34
2023-04-09T13:02:05.483Z,100860.66
2023-04-09T13:04:55.544Z,100854.63
2023-04-09T13:07:44.415Z,100862.31
2023-04-09T13:10:33.259Z,100838.59
2023-04-09T13:13:22.066Z,100807.72
2023-04-09T13:16:10.608Z,100854.25
2023-04-09T13:18:59.158Z,100851.13
2023-04-09T13:21:49.036Z,100847.25
2023-04-09T13:24:37.679Z,100848.91
2023-04-09T13:27:26.508Z,100842.00
2023-04-09T13:30:15.344Z,100849.34
2023-04-09T13:33:05.351Z,100781.00
2023-04-09T13:35:54.713Z,100821.09
2023-04-09T13:38:45.623Z,100826.00
2023-04-09T13:41:35.504Z,100812.50
2023-04-09T13:44:25.955Z,100806.47
2023-04-09T13:47:16.686Z,100807.63
2023-04-09T13:50:06.888Z,100810.88
2023-04-09T13:52:55.664Z,100800.72
2023-04-09T13:55:45.696Z,100806.75
2023-04-09T13:58:36.216Z,100798.31
2023-04-09T14:01:27.957Z,100800.03
2023-04-09T14:04:16.676Z,100792.91
2023-04-09T14:07:05.216Z,100795.72
2023-04-09T14:09:53.845Z,100795.28
2023-04-09T14:12:43.746Z,100792.09
2023-04-09T14:15:32.330Z,100796.44
2023-04-09T14:18:20.948Z,100790.78
2023-04-09T14:21:10.304Z,100787.88
2023-04-09T14:23:59.153Z,100778.88
2023-04-09T14:26:47.727Z,100781.84
2023-04-09T14:29:38.015Z,100774.34
2023-04-09T14:32:26.540Z,100762.03
2023-04-09T14:35:15.356Z,100758.97
2023-04-09T14:38:04.685Z,100734.56
2023-04-09T14:40:53.443Z,100754.22
2023-04-09T14:43:42.030Z,100761.22
2023-04-09T14:46:31.883Z,100760.38
2023-04-09T14:49:20.435Z,100751.81
2023-04-09T14:52:09.344Z,100720.16
2023-04-09T14:54:58.119Z,100749.06
2023-04-09T14:57:46.848Z,100753.19
2023-04-09T15:00:36.104Z,100756.28
2023-04-09T15:03:26.610Z,100746.50
2023-04-09T15:06:15.623Z,100750.53
2023-04-09T15:09:04.176Z,100737.53
2023-04-09T15:11:54.019Z,100732.31
2023-04-09T15:14:42.522Z,100738.03
2023-04-09T15:17:31.140Z,100743.53
2023-04-09T15:20:21.164Z,100683.72
2023-04-09T15:23:09.702Z,100739.06
2023-04-09T15:25:58.998Z,100723.50
2023-04-09T15:28:47.610Z,100735.72
2023-04-09T15:31:36.298Z,100727.28
2023-04-09T15:34:25.848Z,100741.09
2023-04-09T15:37:15.995Z,100732.31
2023-04-09T15:40:05.256Z,100728.34
2023-04-09T15:42:53.807Z,100724.84
2023-04-09T15:45:42.330Z,100725.47
2023-04-09T15:48:30.964Z,100731.19
2023-04-09T15:51:19.498Z,100725.75
2023-04-09T15:54:09.403Z,100737.09
2023-04-09T15:56:57.954Z,100728.53
2023-04-09T15:59:48.326Z,100684.88
2023-04-09T16:02:38.662Z,100726.66
2023-04-09T16:05:27.278Z,100714.19
2023-04-09T16:08:15.893Z,100712.66
2023-04-09T16:11:08.181Z,100712.09
2023-04-09T16:13:57.217Z,100711.66
2023-04-09T16:16:49.651Z,100672.69
2023-04-09T16:19:38.578Z,100710.28
2023-04-09T16:22:27.076Z,100708.78
2023-04-09T16:25:15.592Z,100705.53
2023-04-09T16:28:06.299Z,100714.94
2023-04-09T16:30:54.820Z,100719.53
2023-04-09T16:33:43.371Z,100705.50
2023-04-09T16:36:33.490Z,100714.13
2023-04-09T16:39:22.389Z,100715.28
2023-04-09T16:42:12.112Z,100718.88
2023-04-09T16:45:04.298Z,100715.84
2023-04-09T16:47:53.998Z,100711.34
2023-04-09T16:50:42.862Z,100715.50
2023-04-09T16:53:31.375Z,100687.31
2023-04-09T16:56:20.228Z,100707.66
2023-04-09T16:59:08.768Z,100700.19
2023-04-09T17:01:58.791Z,100707.72
2023-04-09T17:04:48.321Z,100712.94
2023-04-09T17:07:37.049Z,100705.75
2023-04-09T17:10:25.551Z,100664.69
2023-04-09T17:13:14.051Z,100712.06
2023-04-09T17:16:02.899Z,100718.19
2023-04-09T17:18:53.178Z,100714.38
2023-04-09T17:21:41.978Z,100711.22
2023-04-09T17:24:30.564Z,100717.22
2023-04-09T17:27:19.631Z,100721.34
2023-04-09T17:30:09.077Z,100724.91
2023-04-09T17:32:57.644Z,100721.44
2023-04-09T17:35:47.604Z,100746.72
2023-04-09T17:38:36.406Z,100738.06
2023-04-09T17:41:24.923Z,100735.56
2023-04-09T17:44:13.514Z,100736.56
2023-04-09T17:47:02.423Z,100727.53
2023-04-09T17:49:51.521Z,100746.63
2023-04-09T17:52:41.459Z,100737.97
2023-04-09T17:55:30.487Z,100740.69
2023-04-09T17:58:19.026Z,100741.53
2023-04-09T18:01:08.395Z,100708.22
2023-04-09T18:03:57.179Z,100747.38
2023-04-09T18:06:45.861Z,100754.44
2023-04-09T18:09:35.725Z,100756.56
2023-04-09T18:12:25.447Z,100747.44
2023-04-09T18:15:14.165Z,100747.03
2023-04-09T18:18:02.763Z,100750.97
2023-04-09T18:20:52.314Z,100747.06
2023-04-09T18:23:41.131Z,100742.50
2023-04-09T18:26:31.328Z,100746.63
2023-04-09T18:29:19.848Z,100743.34
2023-04-09T18:32:08.383Z,100756.38
2023-04-09T18:34:56.954Z,100758.88
2023-04-09T18:37:45.805Z,100730.66
2023-04-09T18:40:34.299Z,100763.41
2023-04-09T18:43:24.288Z,100764.81
2023-04-09T18:46:12.812Z,100770.78
2023-04-09T18:49:01.544Z,100778.59
2023-04-09T18:51:50.373Z,100772.38
2023-04-09T18:54:39.102Z,100748.66
2023-04-09T18:57:27.661Z,100763.75
2023-04-09T19:00:17.603Z,100763.50
2023-04-09T19:03:06.392Z,100777.34
2023-04-09T19:05:55.140Z,100772.88
2023-04-09T19:08:43.644Z,100774.91
2023-04-09T19:11:32.139Z,100768.28
2023-04-09T19:14:20.744Z,100703.94
2023-04-09T19:17:11.674Z,100771.06
2023-04-09T19:20:00.211Z,100770.56
2023-04-09T19:22:49.379Z,100765.31
2023-04-09T19:25:37.897Z,100764.78
2023-04-09T19:28:26.593Z,100769.13
2023-04-09T19:31:16.038Z,100772.50
2023-04-09T19:34:06.503Z,100772.69
2023-04-09T19:36:55.134Z,100782.34
2023-04-09T19:39:43.619Z,100784.28
2023-04-09T19:42:32.770Z,100779.22
2023-04-09T19:45:21.300Z,100775.72
2023-04-09T19:48:09.902Z,100775.94
2023-04-09T19:50:59.848Z,100780.47
2023-04-09T19:53:49.264Z,100780.03
2023-04-09T19:56:38.270Z,100783.78
2023-04-09T19:59:27.171Z,100790.66
2023-04-09T20:02:16.216Z,100792.66
2023-04-09T20:05:05.098Z,100786.63
2023-04-09T20:07:54.974Z,100784.22
2023-04-09T20:10:46.423Z,100794.84
2023-04-09T20:13:34.969Z,100783.09
2023-04-09T20:16:23.831Z,100770.63
2023-04-09T20:19:12.390Z,100782.91
2023-04-09T20:22:01.210Z,100785.28
2023-04-09T20:24:51.992Z,100792.69
2023-04-09T20:27:40.860Z,100775.56
2023-04-09T20:30:29.691Z,100780.41
2023-04-09T20:33:18.724Z,100793.75
2023-04-09T20:36:15.620Z,100794.53
2023-04-09T20:39:04.536Z,100785.25
2023-04-09T20:41:55.039Z,100784.31
2023-04-09T20:44:44.797Z,100787.53
2023-04-09T20:47:33.393Z,100785.22
2023-04-09T20:50:21.987Z,100772.88
2023-04-09T20:53:10.521Z,100778.75
2023-04-09T20:55:59.209Z,100738.91
2023-04-09T20:58:49.115Z,100753.88
2023-04-09T21:01:37.789Z,100759.63
2023-04-09T21:04:26.579Z,100763.38
2023-04-09T21:07:15.703Z,100758.31
2023-04-09T21:10:05.635Z,100764.38
2023-04-09T21:12:54.119Z,100743.94
2023-04-09T21:15:44.019Z,100761.25
2023-04-09T21:18:32.534Z,100738.59
2023-04-09T21:21:21.419Z,100761.97
2023-04-09T21:24:10.032Z,100755.75
2023-04-09T21:26:58.785Z,100760.97
2023-04-09T21:29:47.350Z,100758.53
2023-04-09T21:32:37.315Z,100754.06
2023-04-09T21:35:25.950Z,100763.22
2023-04-09T21:38:14.478Z,100759.75
2023-04-09T21:41:03.033Z,100764.44
2023-04-09T21:43:51.703Z,100761.78
2023-04-09T21:46:41.675Z,100761.69
2023-04-09T21:49:31.702Z,100766.41
2023-04-09T21:52:20.624Z,100750.94
2023-04-09T21:55:10.181Z,100753.31
2023-04-09T21:57:59.044Z,100755.53
2023-04-09T22:00:47.793Z,100750.94
2023-04-09T22:03:37.207Z,100728.75
2023-04-09T22:06:28.932Z,100748.09
2023-04-09T22:09:17.704Z,100699.44
2023-04-09T22:12:06.979Z,100745.94
2023-04-09T22:14:55.536Z,100746.91
2023-04-09T22:17:44.200Z,100746.09
2023-04-09T22:20:33.323Z,100749.25
2023-04-09T22:23:23.233Z,100747.63
2023-04-09T22:26:11.939Z,100673.94
2023-04-09T22:29:00.645Z,100746.78
2023-04-09T22:31:49.189Z,100750.25
2023-04-09T22:34:37.755Z,100723.28
2023-04-09T22:37:26.374Z,100748.94
2023-04-09T22:40:16.719Z,100753.75
2023-04-09T22:43:05.710Z,100756.59
2023-04-09T22:45:55.171Z,100752.13
2023-04-09T22:48:44.899Z,100762.94
2023-04-09T22:51:34.950Z,100758.06
2023-04-09T22:54:24.562Z,100761.06
2023-04-09T22:57:14.532Z,100762.22
2023-04-09T23:00:05.027Z,100751.34
2023-04-09T23:02:53.670Z,100759.03
2023-04-09T23:05:42.351Z,100756.56
2023-04-09T23:08:31.164Z,100759.53
2023-04-09T23:11:19.790Z,100757.56
2023-04-09T23:14:09.703Z,100732.22
2023-04-09T23:16:58.271Z,100754.06
2023-04-09T23:19:46.991Z,100768.50
2023-04-09T23:22:35.489Z,100762.22
2023-04-09T23:25:24.024Z,100767.06
2023-04-09T23:28:12.577Z,100755.50
2023-04-09T23:31:02.469Z,100749.97
2023-04-09T23:33:52.016Z,100748.47
2023-04-09T23:36:40.824Z,100752.09
2023-04-09T23:39:29.582Z,100753.75
2023-04-09T23:42:18.183Z,100736.44
2023-04-09T23:45:07.806Z,100748.66
2023-04-09T23:47:57.784Z,100740.38
2023-04-09T23:50:47.693Z,100747.88
2023-04-09T23:53:36.292Z,100748.06
2023-04-09T23:56:25.113Z,100739.91
2023-04-09T23:59:13.788Z,100742.25
